Time;durP1;ratioP1;P1;durP2;ratioP2;P2;SDS_P1;SDS_P2;PMS_P1;PMS_P2;Temp;Humidity;BMP_temperature;BMP_pressure;BME280_temperature;BME280_humidity;BME280_pressure;Samples;Min_cycle;Max_cycle;Signal;HPM_P1;HPM_P2
2022/05/10 00:02:09;;;;;;;11.20;9.55;;;;;;;;;;4961881;28;20038;-72
2022/05/10 00:04:35;;;;;;;11.85;10.68;;;;;;;;;;4970699;23;20118;-68
2022/05/10 00:07:00;;;;;;;11.18;9.93;;;;;;;;;;4961297;28;20042;-68
2022/05/10 00:09:29;;;;;;;11.43;10.20;;;;;;;;;;4961738;28;20138;-68
2022/05/10 00:11:56;;;;;;;12.55;11.25;;;;;;;;;;4964519;28;20046;-68
2022/05/10 00:14:22;;;;;;;12.10;10.90;;;;;;;;;;4953582;28;20126;-68
2022/05/10 00:16:51;;;;;;;15.77;11.10;;;;;;;;;;4945637;28;20122;-68
2022/05/10 00:19:17;;;;;;;14.23;12.00;;;;;;;;;;4953862;28;20122;-68
2022/05/10 00:21:43;;;;;;;13.95;11.73;;;;;;;;;;4946336;28;20035;-68
2022/05/10 00:24:09;;;;;;;13.10;11.60;;;;;;;;;;4945385;28;20391;-68
2022/05/10 00:26:34;;;;;;;19.25;11.55;;;;;;;;;;4945766;28;20407;-68
2022/05/10 00:29:01;;;;;;;15.43;11.90;;;;;;;;;;4946072;28;20067;-68
2022/05/10 00:31:27;;;;;;;15.65;12.05;;;;;;;;;;4952575;28;20045;-68
2022/05/10 00:33:53;;;;;;;13.32;11.55;;;;;;;;;;4945734;28;20558;-68
2022/05/10 00:36:22;;;;;;;12.73;11.15;;;;;;;;;;4945793;28;20035;-69
2022/05/10 00:38:48;;;;;;;12.70;11.18;;;;;;;;;;4945086;28;20027;-69
2022/05/10 00:41:22;;;;;;;13.77;10.93;;;;;;;;;;4946039;28;20047;-68
2022/05/10 00:43:52;;;;;;;14.45;11.15;;;;;;;;;;4945135;28;20142;-69
2022/05/10 00:46:23;;;;;;;11.93;10.10;;;;;;;;;;4952505;28;21132;-68
2022/05/10 00:49:05;;;;;;;13.70;11.93;;;;;;;;;;4949946;28;20750;-69
2022/05/10 00:51:48;;;;;;;;;;;;;;;;;;4945788;28;20046;-69
2022/05/10 00:54:29;;;;;;;15.18;11.13;;;;;;;;;;4944806;28;19985;-68
2022/05/10 00:56:57;;;;;;;11.27;10.05;;;;;;;;;;4945814;28;20050;-69
2022/05/10 00:59:33;;;;;;;15.48;10.65;;;;;;;;;;4946900;28;20031;-68
2022/05/10 01:02:11;;;;;;;13.93;10.88;;;;;;;;;;4962760;28;20039;-69
2022/05/10 01:04:46;;;;;;;16.88;10.77;;;;;;;;;;4944881;28;20027;-68
2022/05/10 01:07:22;;;;;;;16.10;10.27;;;;;;;;;;4945721;28;20043;-69
2022/05/10 01:10:01;;;;;;;13.45;11.15;;;;;;;;;;4945556;28;20035;-69
2022/05/10 01:12:38;;;;;;;11.93;10.32;;;;;;;;;;4950442;28;20117;-69
2022/05/10 01:15:12;;;;;;;13.35;10.27;;;;;;;;;;4944648;28;20129;-68
2022/05/10 01:17:39;;;;;;;14.18;10.90;;;;;;;;;;4950563;28;20033;-68
2022/05/10 01:20:06;;;;;;;14.25;12.27;;;;;;;;;;4945113;28;20369;-69
2022/05/10 01:22:54;;;;;;;17.55;10.65;;;;;;;;;;4950250;28;20035;-68
2022/05/10 01:25:36;;;;;;;12.40;10.70;;;;;;;;;;4944733;28;20058;-69
2022/05/10 01:28:07;;;;;;;11.10;10.00;;;;;;;;;;4948435;28;20043;-69
2022/05/10 01:30:33;;;;;;;12.85;10.43;;;;;;;;;;4941377;28;20094;-69
2022/05/10 01:35:53;;;;;;;11.73;9.85;;;;;;;;;;4950965;28;20436;-68
2022/05/10 01:38:21;;;;;;;12.18;9.48;;;;;;;;;;4945217;28;20518;-68
2022/05/10 01:40:50;;;;;;;11.85;9.10;;;;;;;;;;4945902;28;20097;-69
2022/05/10 01:43:24;;;;;;;16.60;9.25;;;;;;;;;;4944530;28;20062;-69
2022/05/10 01:45:56;;;;;;;14.13;9.15;;;;;;;;;;4954142;28;20079;-69
2022/05/10 01:48:22;;;;;;;17.05;9.45;;;;;;;;;;4944632;28;20034;-69
2022/05/10 01:51:08;;;;;;;12.52;9.25;;;;;;;;;;4945064;28;20038;-69
2022/05/10 01:53:36;;;;;;;11.40;8.90;;;;;;;;;;4944793;28;20062;-68
2022/05/10 01:56:05;;;;;;;11.40;8.63;;;;;;;;;;4944518;28;20392;-69
2022/05/10 01:58:34;;;;;;;11.38;9.13;;;;;;;;;;4941898;28;20027;-69
2022/05/10 02:01:08;;;;;;;11.57;8.65;;;;;;;;;;4951018;28;20039;-69
2022/05/10 02:03:56;;;;;;;11.15;8.95;;;;;;;;;;4944314;28;20122;-69
2022/05/10 02:06:47;;;;;;;9.95;8.02;;;;;;;;;;4949552;28;20031;-69
2022/05/10 02:09:24;;;;;;;12.90;8.18;;;;;;;;;;4916571;28;20047;-69
2022/05/10 02:12:02;;;;;;;12.35;8.60;;;;;;;;;;4944436;28;20047;-69
2022/05/10 02:14:33;;;;;;;9.68;8.07;;;;;;;;;;4942262;28;20126;-69
2022/05/10 02:17:12;;;;;;;9.85;8.55;;;;;;;;;;4956467;28;20161;-69
2022/05/10 02:20:05;;;;;;;12.05;8.90;;;;;;;;;;4943849;28;20039;-69
2022/05/10 02:22:33;;;;;;;;;;;;;;;;;;4927472;28;20086;-69
2022/05/10 02:25:05;;;;;;;11.75;9.27;;;;;;;;;;4951171;28;19929;-68
2022/05/10 02:27:39;;;;;;;13.07;9.05;;;;;;;;;;4943480;28;20039;-69
2022/05/10 02:30:14;;;;;;;13.50;10.32;;;;;;;;;;4943503;28;20489;-69
2022/05/10 02:33:06;;;;;;;12.55;8.98;;;;;;;;;;4943398;28;20035;-69
2022/05/10 02:35:54;;;;;;;13.63;9.57;;;;;;;;;;4943859;28;20039;-68
2022/05/10 02:38:27;;;;;;;13.52;10.52;;;;;;;;;;4943921;28;20027;-69
2022/05/10 02:40:56;;;;;;;12.77;10.18;;;;;;;;;;4947286;28;20372;-68
2022/05/10 02:43:28;;;;;;;11.35;9.55;;;;;;;;;;4943380;28;20046;-69
2022/05/10 02:45:55;;;;;;;;;;;;;;;;;;4950013;28;20050;-68
2022/05/10 02:48:28;;;;;;;14.75;9.43;;;;;;;;;;4944029;28;19918;-69
2022/05/10 02:50:54;;;;;;;10.80;9.70;;;;;;;;;;4949309;28;20043;-68
2022/05/10 02:53:20;;;;;;;15.32;10.95;;;;;;;;;;4943165;28;20062;-68
2022/05/10 02:56:01;;;;;;;12.82;10.48;;;;;;;;;;4943239;28;20118;-69
2022/05/10 02:58:51;;;;;;;14.35;11.02;;;;;;;;;;4943728;28;20479;-68
2022/05/10 03:01:51;;;;;;;13.02;10.07;;;;;;;;;;4943220;28;20137;-69
2022/05/10 03:04:17;;;;;;;19.35;9.55;;;;;;;;;;4912491;28;20054;-68
2022/05/10 03:06:46;;;;;;;11.00;9.25;;;;;;;;;;4943635;28;20034;-68
2022/05/10 03:09:12;;;;;;;11.93;9.77;;;;;;;;;;4943474;28;20035;-68
2022/05/10 03:11:38;;;;;;;15.73;10.13;;;;;;;;;;4946060;28;20412;-68
2022/05/10 03:14:05;;;;;;;11.05;9.23;;;;;;;;;;4944936;28;20048;-68
2022/05/10 03:16:31;;;;;;;12.07;8.98;;;;;;;;;;4950164;28;20065;-68
2022/05/10 03:18:57;;;;;;;15.77;10.40;;;;;;;;;;4943263;28;20102;-68
2022/05/10 03:21:23;;;;;;;17.67;12.13;;;;;;;;;;4950003;28;20121;-68
2022/05/10 03:23:49;;;;;;;12.98;10.32;;;;;;;;;;4948112;28;20078;-68
2022/05/10 03:26:18;;;;;;;13.82;11.10;;;;;;;;;;4950404;28;20043;-68
2022/05/10 03:28:43;;;;;;;14.00;10.25;;;;;;;;;;4949540;28;20034;-68
2022/05/10 03:31:10;;;;;;;14.35;11.20;;;;;;;;;;4942702;28;20405;-68
2022/05/10 03:33:37;;;;;;;12.15;10.30;;;;;;;;;;4946837;28;20113;-68
2022/05/10 03:36:02;;;;;;;15.60;10.98;;;;;;;;;;4944549;28;20046;-68
2022/05/10 03:38:29;;;;;;;12.75;10.20;;;;;;;;;;4942785;28;20031;-68
2022/05/10 03:40:55;;;;;;;10.93;8.63;;;;;;;;;;4941760;28;20049;-68
2022/05/10 03:43:20;;;;;;;9.55;8.48;;;;;;;;;;4942100;28;20567;-68
2022/05/10 03:45:46;;;;;;;12.27;9.15;;;;;;;;;;4952445;28;20049;-68
2022/05/10 03:48:11;;;;;;;11.18;8.90;;;;;;;;;;4947849;28;20031;-67
2022/05/10 03:50:37;;;;;;;12.07;10.80;;;;;;;;;;4947141;28;20109;-67
2022/05/10 03:53:02;;;;;;;14.52;10.32;;;;;;;;;;4947013;28;20130;-68
2022/05/10 03:55:28;;;;;;;12.18;9.43;;;;;;;;;;4955307;28;20050;-68
2022/05/10 03:57:54;;;;;;;12.25;10.23;;;;;;;;;;4949995;28;20106;-68
2022/05/10 04:00:26;;;;;;;14.15;9.63;;;;;;;;;;4948735;28;20451;-67
2022/05/10 04:02:53;;;;;;;15.73;12.27;;;;;;;;;;4957458;28;20142;-68
2022/05/10 04:05:19;;;;;;;11.80;10.13;;;;;;;;;;4946197;28;20054;-68
2022/05/10 04:07:45;;;;;;;13.38;10.45;;;;;;;;;;4951591;28;20046;-68
2022/05/10 04:10:13;;;;;;;14.82;10.32;;;;;;;;;;4936826;28;20044;-68
2022/05/10 04:12:39;;;;;;;18.02;10.80;;;;;;;;;;4946347;28;20063;-68
2022/05/10 04:15:07;;;;;;;15.48;12.13;;;;;;;;;;4947114;28;20037;-68
2022/05/10 04:17:32;;;;;;;14.82;12.68;;;;;;;;;;4953332;28;20042;-68
2022/05/10 04:19:57;;;;;;;16.58;12.75;;;;;;;;;;4953372;28;20047;-68
2022/05/10 04:22:23;;;;;;;13.93;11.63;;;;;;;;;;4956079;28;20522;-68
2022/05/10 04:24:49;;;;;;;18.30;12.65;;;;;;;;;;4950820;28;20034;-68
2022/05/10 04:27:14;;;;;;;19.75;12.43;;;;;;;;;;4950367;28;20078;-69
2022/05/10 04:29:40;;;;;;;15.77;12.65;;;;;;;;;;4954443;28;20025;-69
2022/05/10 04:32:06;;;;;;;17.15;12.48;;;;;;;;;;4951030;28;20118;-69
2022/05/10 04:34:33;;;;;;;17.30;12.15;;;;;;;;;;4953464;28;20043;-68
2022/05/10 04:36:59;;;;;;;18.05;12.60;;;;;;;;;;4937309;28;20101;-69
2022/05/10 04:39:24;;;;;;;16.23;11.43;;;;;;;;;;4953660;28;20122;-68
2022/05/10 04:41:53;;;;;;;15.75;11.38;;;;;;;;;;4954139;28;20039;-70
2022/05/10 04:44:19;;;;;;;21.67;12.02;;;;;;;;;;4954353;28;20031;-70
2022/05/10 04:46:44;;;;;;;15.60;10.75;;;;;;;;;;4956249;28;20042;-70
2022/05/10 04:49:12;;;;;;;13.88;11.02;;;;;;;;;;4952341;28;20530;-69
2022/05/10 04:51:38;;;;;;;15.82;10.88;;;;;;;;;;4951987;28;20035;-69
2022/05/10 04:54:04;;;;;;;19.55;11.85;;;;;;;;;;4955083;28;20038;-69
2022/05/10 04:56:30;;;;;;;16.25;11.57;;;;;;;;;;4952773;28;20050;-69
2022/05/10 04:58:55;;;;;;;14.57;11.25;;;;;;;;;;4951301;28;20415;-69
2022/05/10 05:01:25;;;;;;;15.27;11.60;;;;;;;;;;4946960;28;20082;-69
2022/05/10 05:03:52;;;;;;;14.55;9.95;;;;;;;;;;4949004;28;20043;-69
2022/05/10 05:06:18;;;;;;;12.40;9.10;;;;;;;;;;4945108;28;20039;-69
2022/05/10 05:08:44;;;;;;;10.80;8.88;;;;;;;;;;4954102;28;20038;-68
2022/05/10 05:11:09;;;;;;;9.60;8.55;;;;;;;;;;4949881;28;20065;-69
2022/05/10 05:13:35;;;;;;;9.07;8.10;;;;;;;;;;4953047;28;20022;-68
2022/05/10 05:16:01;;;;;;;12.05;8.90;;;;;;;;;;4950157;28;20595;-69
2022/05/10 05:18:27;;;;;;;8.30;7.38;;;;;;;;;;4948948;28;21208;-68
2022/05/10 05:20:53;;;;;;;8.90;7.50;;;;;;;;;;4930148;28;20141;-68
2022/05/10 05:23:21;;;;;;;8.38;7.25;;;;;;;;;;4943324;28;20070;-68
2022/05/10 05:25:47;;;;;;;12.45;6.93;;;;;;;;;;4948957;28;20187;-69
2022/05/10 05:28:12;;;;;;;7.70;6.18;;;;;;;;;;4943548;28;20173;-70
2022/05/10 05:30:40;;;;;;;13.65;7.40;;;;;;;;;;4953108;28;20038;-68
2022/05/10 05:33:06;;;;;;;12.35;7.00;;;;;;;;;;4958552;28;20042;-68
2022/05/10 05:35:33;;;;;;;16.08;6.32;;;;;;;;;;4943475;28;20046;-68
2022/05/10 05:37:58;;;;;;;6.28;5.35;;;;;;;;;;4952217;28;20105;-69
2022/05/10 05:40:24;;;;;;;7.15;6.40;;;;;;;;;;4946699;28;20558;-68
2022/05/10 05:42:51;;;;;;;8.77;6.47;;;;;;;;;;4943699;28;20038;-68
2022/05/10 05:45:19;;;;;;;11.20;6.70;;;;;;;;;;4944271;28;20039;-68
2022/05/10 05:47:45;;;;;;;6.80;6.10;;;;;;;;;;4949457;28;20500;-68
2022/05/10 05:50:14;;;;;;;7.50;6.05;;;;;;;;;;4944514;28;20067;-69
2022/05/10 05:52:40;;;;;;;6.38;5.78;;;;;;;;;;4945183;28;20488;-69
2022/05/10 05:55:07;;;;;;;9.02;5.30;;;;;;;;;;4946769;28;20050;-68
2022/05/10 05:57:33;;;;;;;8.82;6.10;;;;;;;;;;4949185;28;20082;-68
2022/05/10 05:59:58;;;;;;;9.48;5.10;;;;;;;;;;4954603;28;20137;-70
2022/05/10 06:02:25;;;;;;;12.98;5.15;;;;;;;;;;4939309;28;20049;-71
2022/05/10 06:04:52;;;;;;;7.35;4.70;;;;;;;;;;4928523;28;20035;-71
2022/05/10 06:07:18;;;;;;;8.70;4.47;;;;;;;;;;4944321;28;20078;-71
2022/05/10 06:09:46;;;;;;;6.35;5.65;;;;;;;;;;4924818;28;20094;-72
2022/05/10 06:12:13;;;;;;;6.05;5.20;;;;;;;;;;4947030;28;20499;-71
2022/05/10 06:14:38;;;;;;;9.85;4.78;;;;;;;;;;4942561;28;20126;-71
2022/05/10 06:17:07;;;;;;;8.13;4.68;;;;;;;;;;4951486;28;20157;-71
2022/05/10 06:19:36;;;;;;;7.03;4.57;;;;;;;;;;4946438;28;20070;-70
2022/05/10 06:22:03;;;;;;;6.80;4.82;;;;;;;;;;4948026;28;20046;-72
2022/05/10 06:24:28;;;;;;;8.48;5.00;;;;;;;;;;4922611;28;20074;-73
2022/05/10 06:26:54;;;;;;;8.13;4.90;;;;;;;;;;4946707;28;20110;-73
2022/05/10 06:29:19;;;;;;;5.05;4.57;;;;;;;;;;4954371;28;20652;-72
2022/05/10 06:31:46;;;;;;;5.78;4.90;;;;;;;;;;4953592;28;20051;-73
2022/05/10 06:34:13;;;;;;;8.90;4.97;;;;;;;;;;4942026;28;20047;-71
2022/05/10 06:36:39;;;;;;;6.75;4.90;;;;;;;;;;4947892;28;20042;-71
2022/05/10 06:39:05;;;;;;;10.43;4.72;;;;;;;;;;4944203;28;20046;-71
2022/05/10 06:41:32;;;;;;;5.45;4.60;;;;;;;;;;4947256;28;20054;-70
2022/05/10 06:43:58;;;;;;;6.90;4.70;;;;;;;;;;4942543;28;20117;-71
2022/05/10 06:46:26;;;;;;;8.05;4.70;;;;;;;;;;4931882;28;20517;-70
2022/05/10 06:48:52;;;;;;;6.22;4.45;;;;;;;;;;4942529;28;20471;-70
2022/05/10 06:51:19;;;;;;;7.22;4.53;;;;;;;;;;4942175;28;20023;-70
2022/05/10 06:53:45;;;;;;;6.00;4.30;;;;;;;;;;4948043;28;20043;-71
2022/05/10 06:56:11;;;;;;;5.03;4.38;;;;;;;;;;4942506;28;20147;-72
2022/05/10 06:58:37;;;;;;;9.27;4.53;;;;;;;;;;4943095;28;20042;-72
2022/05/10 07:01:11;;;;;;;6.05;4.13;;;;;;;;;;4947293;28;20043;-71
2022/05/10 07:03:37;;;;;;;4.97;4.00;;;;;;;;;;4947272;28;20089;-71
2022/05/10 07:06:06;;;;;;;4.60;3.95;;;;;;;;;;4943461;28;20054;-70
2022/05/10 07:08:32;;;;;;;4.43;4.03;;;;;;;;;;4941526;28;20042;-70
2022/05/10 07:10:58;;;;;;;5.80;4.38;;;;;;;;;;4929851;28;20062;-70
2022/05/10 07:13:26;;;;;;;5.18;4.13;;;;;;;;;;4945102;28;20043;-70
2022/05/10 07:15:52;;;;;;;6.47;4.25;;;;;;;;;;4948127;28;20150;-71
2022/05/10 07:18:19;;;;;;;5.40;3.97;;;;;;;;;;4948279;28;20132;-72
2022/05/10 07:20:46;;;;;;;9.98;4.53;;;;;;;;;;4942610;28;20043;-70
2022/05/10 07:23:12;;;;;;;8.70;4.82;;;;;;;;;;4949348;28;20038;-70
2022/05/10 07:25:38;;;;;;;7.18;4.20;;;;;;;;;;4947275;28;20098;-71
2022/05/10 07:28:08;;;;;;;7.43;4.70;;;;;;;;;;4947586;28;20211;-71
2022/05/10 07:30:34;;;;;;;5.03;3.97;;;;;;;;;;4946309;28;20132;-72
2022/05/10 07:33:00;;;;;;;4.30;3.90;;;;;;;;;;4951852;28;20035;-71
2022/05/10 07:38:14;;;;;;;4.93;3.88;;;;;;;;;;4943547;28;20038;-71
2022/05/10 07:40:42;;;;;;;7.72;3.95;;;;;;;;;;4942172;28;20039;-70
2022/05/10 07:43:12;;;;;;;4.28;3.88;;;;;;;;;;4943783;28;20035;-70
2022/05/10 07:45:40;;;;;;;6.60;5.07;;;;;;;;;;4952060;28;20049;-71
2022/05/10 07:48:06;;;;;;;10.25;4.18;;;;;;;;;;4945301;28;20114;-70
2022/05/10 07:50:32;;;;;;;4.43;4.03;;;;;;;;;;4950840;28;20043;-71
2022/05/10 07:53:06;;;;;;;6.00;3.95;;;;;;;;;;4946193;28;20415;-73
2022/05/10 07:55:32;;;;;;;;;;;;;;;;;;4948394;28;20039;-72
2022/05/10 07:57:57;;;;;;;4.22;3.90;;;;;;;;;;4948239;28;19925;-72
2022/05/10 08:00:23;;;;;;;4.68;4.20;;;;;;;;;;4943228;28;20093;-71
2022/05/10 08:02:48;;;;;;;8.18;4.38;;;;;;;;;;4946265;28;20023;-73
2022/05/10 08:05:19;;;;;;;8.50;4.15;;;;;;;;;;4940665;28;20147;-73
2022/05/10 08:07:44;;;;;;;6.57;4.30;;;;;;;;;;4941565;28;20043;-70
2022/05/10 08:10:10;;;;;;;5.78;3.95;;;;;;;;;;4947370;28;20118;-70
2022/05/10 08:12:36;;;;;;;7.13;3.80;;;;;;;;;;4942146;28;20138;-71
2022/05/10 08:15:04;;;;;;;5.32;3.83;;;;;;;;;;4943936;28;20134;-73
2022/05/10 08:17:30;;;;;;;6.63;3.90;;;;;;;;;;4951884;28;20047;-71
2022/05/10 08:19:55;;;;;;;7.40;4.10;;;;;;;;;;4954106;28;20273;-70
2022/05/10 08:22:21;;;;;;;7.03;4.35;;;;;;;;;;4955327;28;20117;-70
2022/05/10 08:24:46;;;;;;;4.68;4.28;;;;;;;;;;4927731;28;20041;-73
2022/05/10 08:27:12;;;;;;;4.88;4.10;;;;;;;;;;4946704;28;20539;-74
2022/05/10 08:29:41;;;;;;;7.05;3.60;;;;;;;;;;4947086;28;20062;-71
2022/05/10 08:32:06;;;;;;;4.38;3.47;;;;;;;;;;4941584;28;20058;-72
2022/05/10 08:34:34;;;;;;;5.28;3.20;;;;;;;;;;4952945;28;20062;-70
2022/05/10 08:37:02;;;;;;;4.78;3.50;;;;;;;;;;4955319;28;20133;-69
2022/05/10 08:39:27;;;;;;;5.03;3.50;;;;;;;;;;4956417;28;20039;-70
2022/05/10 08:41:56;;;;;;;5.90;2.92;;;;;;;;;;4947176;28;20054;-69
2022/05/10 08:44:25;;;;;;;3.53;3.20;;;;;;;;;;4944327;28;20045;-69
2022/05/10 08:46:54;;;;;;;4.43;3.63;;;;;;;;;;4951427;28;20042;-69
2022/05/10 08:49:21;;;;;;;5.00;3.20;;;;;;;;;;4948179;28;20042;-69
2022/05/10 08:51:48;;;;;;;7.13;3.70;;;;;;;;;;4948814;28;20492;-69
2022/05/10 08:54:14;;;;;;;4.18;3.88;;;;;;;;;;4951159;28;20043;-72
2022/05/10 08:56:45;;;;;;;7.20;4.15;;;;;;;;;;4944537;28;20836;-71
2022/05/10 08:59:37;;;;;;;4.68;3.35;;;;;;;;;;4950525;28;20047;-68
2022/05/10 09:02:05;;;;;;;7.43;3.60;;;;;;;;;;4944386;28;20054;-69
2022/05/10 09:04:51;;;;;;;5.57;3.50;;;;;;;;;;4943460;28;20023;-70
2022/05/10 09:07:16;;;;;;;3.70;3.40;;;;;;;;;;4946205;28;20058;-68
2022/05/10 09:10:18;;;;;;;3.90;3.42;;;;;;;;;;4946631;28;20030;-69
2022/05/10 09:12:52;;;;;;;5.72;3.20;;;;;;;;;;4947193;28;20031;-67
2022/05/10 09:15:22;;;;;;;3.92;2.90;;;;;;;;;;4945823;28;20059;-67
2022/05/10 09:17:47;;;;;;;4.90;3.00;;;;;;;;;;4943533;28;20134;-67
2022/05/10 09:20:13;;;;;;;4.00;3.35;;;;;;;;;;4944128;28;20146;-69
2022/05/10 09:22:59;;;;;;;3.50;3.20;;;;;;;;;;4948551;28;20106;-68
2022/05/10 09:25:32;;;;;;;3.58;3.15;;;;;;;;;;4945840;28;20046;-67
2022/05/10 09:28:03;;;;;;;3.38;3.03;;;;;;;;;;4945786;28;20073;-68
2022/05/10 09:30:34;;;;;;;3.80;3.15;;;;;;;;;;4948109;28;20471;-67
2022/05/10 09:36:06;;;;;;;4.18;3.22;;;;;;;;;;4944595;28;20039;-67
2022/05/10 09:38:33;;;;;;;4.75;3.20;;;;;;;;;;4947727;28;20039;-67
2022/05/10 09:40:58;;;;;;;8.77;3.65;;;;;;;;;;4958965;28;20053;-68
2022/05/10 09:43:31;;;;;;;8.85;3.90;;;;;;;;;;4952624;28;20031;-67
2022/05/10 09:46:05;;;;;;;4.10;3.60;;;;;;;;;;4944589;28;20039;-68
2022/05/10 09:48:30;;;;;;;6.15;4.22;;;;;;;;;;4947236;28;20054;-67
2022/05/10 09:50:57;;;;;;;4.35;3.70;;;;;;;;;;4950514;28;20034;-68
2022/05/10 09:53:32;;;;;;;5.38;3.65;;;;;;;;;;4951365;28;20082;-68
2022/05/10 09:56:12;;;;;;;5.28;3.92;;;;;;;;;;4954307;28;20114;-68
2022/05/10 09:58:43;;;;;;;4.17;3.70;;;;;;;;;;4953558;28;20042;-68
2022/05/10 10:01:11;;;;;;;6.00;3.40;;;;;;;;;;4952547;28;20057;-68
2022/05/10 10:03:42;;;;;;;5.30;3.38;;;;;;;;;;4951184;28;20039;-68
2022/05/10 10:06:26;;;;;;;5.88;3.25;;;;;;;;;;4952371;28;20117;-69
2022/05/10 10:08:55;;;;;;;4.35;3.40;;;;;;;;;;4956478;28;20038;-69
2022/05/10 10:11:33;;;;;;;5.53;3.85;;;;;;;;;;4934023;28;20606;-69
2022/05/10 10:14:06;;;;;;;5.80;3.70;;;;;;;;;;4954000;28;20043;-69
2022/05/10 10:16:35;;;;;;;6.22;3.63;;;;;;;;;;4951434;28;20031;-69
2022/05/10 10:19:25;;;;;;;3.83;3.40;;;;;;;;;;4917213;28;20027;-68
2022/05/10 10:21:54;;;;;;;4.75;3.60;;;;;;;;;;4933993;28;20066;-70
2022/05/10 10:24:51;;;;;;;8.40;3.78;;;;;;;;;;4949022;28;20039;-69
2022/05/10 10:27:26;;;;;;;5.10;3.85;;;;;;;;;;4952442;28;20177;-69
2022/05/10 10:30:00;;;;;;;5.28;2.97;;;;;;;;;;4950165;28;20443;-70
2022/05/10 10:32:39;;;;;;;3.55;3.17;;;;;;;;;;4951019;28;20085;-68
2022/05/10 10:35:49;;;;;;;3.75;3.45;;;;;;;;;;4948714;28;20035;-69
2022/05/10 10:38:18;;;;;;;5.70;3.35;;;;;;;;;;4883846;29;20040;-69
2022/05/10 10:40:51;;;;;;;4.05;3.20;;;;;;;;;;4883460;29;20147;-69
2022/05/10 10:43:40;;;;;;;3.47;2.33;;;;;;;;;;4920412;28;20147;-69
2022/05/10 10:46:28;;;;;;;9.15;3.30;;;;;;;;;;4948663;28;20042;-70
2022/05/10 10:49:06;;;;;;;3.95;2.90;;;;;;;;;;4950646;28;20054;-69
2022/05/10 10:51:33;;;;;;;2.70;2.50;;;;;;;;;;4950854;28;20503;-69
2022/05/10 10:54:00;;;;;;;2.85;2.60;;;;;;;;;;4948407;28;20051;-69
2022/05/10 10:56:54;;;;;;;7.53;3.58;;;;;;;;;;4948457;28;20129;-69
2022/05/10 10:59:50;;;;;;;6.35;3.25;;;;;;;;;;4946954;28;20492;-70
2022/05/10 11:02:23;;;;;;;3.55;2.70;;;;;;;;;;4951370;28;20050;-69
2022/05/10 11:05:13;;;;;;;5.07;3.00;;;;;;;;;;4948178;28;20042;-70
2022/05/10 11:08:08;;;;;;;2.97;2.63;;;;;;;;;;4951498;28;20042;-70
2022/05/10 11:11:08;;;;;;;2.85;2.53;;;;;;;;;;4951037;28;20046;-70
2022/05/10 11:14:06;;;;;;;2.85;2.65;;;;;;;;;;4948733;28;20484;-70
2022/05/10 11:16:42;;;;;;;3.10;2.83;;;;;;;;;;4948355;28;20043;-70
2022/05/10 11:19:07;;;;;;;3.38;3.00;;;;;;;;;;4947958;28;20130;-70
2022/05/10 11:21:56;;;;;;;5.22;3.00;;;;;;;;;;4953578;28;20041;-69
2022/05/10 11:24:44;;;;;;;3.50;2.80;;;;;;;;;;4950954;28;20554;-70
2022/05/10 11:27:17;;;;;;;3.17;2.90;;;;;;;;;;4950213;28;20039;-71
2022/05/10 11:30:15;;;;;;;7.75;2.60;;;;;;;;;;4947856;28;20031;-71
2022/05/10 11:32:49;;;;;;;4.18;3.03;;;;;;;;;;4947748;28;20673;-69
2022/05/10 11:35:15;;;;;;;2.88;2.65;;;;;;;;;;4949756;28;20498;-69
2022/05/10 11:37:47;;;;;;;3.38;3.08;;;;;;;;;;4950488;28;20019;-71
2022/05/10 11:40:31;;;;;;;4.22;2.92;;;;;;;;;;4947620;28;20042;-69
2022/05/10 11:43:22;;;;;;;3.38;3.08;;;;;;;;;;4956066;28;20067;-70
2022/05/10 11:45:55;;;;;;;3.22;2.92;;;;;;;;;;4947349;28;20043;-69
2022/05/10 11:48:39;;;;;;;4.80;2.85;;;;;;;;;;4951703;28;20081;-70
2022/05/10 11:51:43;;;;;;;5.25;2.90;;;;;;;;;;4945100;28;20042;-69
2022/05/10 11:54:29;;;;;;;5.40;3.28;;;;;;;;;;4944730;28;20551;-69
2022/05/10 11:56:56;;;;;;;3.30;2.80;;;;;;;;;;4953808;28;20101;-69
2022/05/10 11:59:26;;;;;;;4.95;3.00;;;;;;;;;;4944147;28;20043;-69
2022/05/10 12:01:56;;;;;;;4.80;3.07;;;;;;;;;;4953793;28;20050;-70
2022/05/10 12:04:28;;;;;;;4.55;3.40;;;;;;;;;;4943555;28;20039;-69
2022/05/10 12:06:54;;;;;;;4.45;3.10;;;;;;;;;;4953750;28;20121;-69
2022/05/10 12:09:57;;;;;;;3.78;3.00;;;;;;;;;;4952595;28;20365;-68
2022/05/10 12:12:32;;;;;;;5.38;2.60;;;;;;;;;;4957305;28;20126;-70
2022/05/10 12:24:11;;;;;;;3.10;2.80;;;;;;;;;;4949891;28;20495;-69
2022/05/10 12:26:43;;;;;;;3.50;3.17;;;;;;;;;;4852254;29;20040;-68
2022/05/10 12:29:31;;;;;;;4.80;3.00;;;;;;;;;;4869607;29;20040;-68
2022/05/10 12:32:01;;;;;;;5.07;3.03;;;;;;;;;;4929716;28;20124;-69
2022/05/10 12:34:50;;;;;;;62.15;7.05;;;;;;;;;;4936881;28;20034;-70
2022/05/10 12:37:31;;;;;;;3.20;2.90;;;;;;;;;;4955125;28;20125;-69
2022/05/10 12:40:13;;;;;;;7.97;3.20;;;;;;;;;;4950068;28;20053;-69
2022/05/10 12:42:57;;;;;;;11.30;4.07;;;;;;;;;;4948942;28;20054;-69
2022/05/10 12:45:37;;;;;;;5.05;2.90;;;;;;;;;;4951323;28;20039;-69
2022/05/10 12:48:17;;;;;;;2.60;2.40;;;;;;;;;;4952976;28;20027;-69
2022/05/10 12:51:13;;;;;;;3.78;2.75;;;;;;;;;;4945953;28;20121;-69
2022/05/10 12:53:47;;;;;;;8.77;2.72;;;;;;;;;;4950712;28;20495;-69
2022/05/10 12:56:16;;;;;;;2.80;2.60;;;;;;;;;;4946788;28;20043;-70
2022/05/10 12:58:46;;;;;;;5.63;2.42;;;;;;;;;;4949377;28;20035;-69
2022/05/10 13:01:14;;;;;;;2.65;2.45;;;;;;;;;;4957410;28;20057;-69
2022/05/10 13:03:46;;;;;;;6.22;2.60;;;;;;;;;;4956009;28;20031;-70
2022/05/10 13:06:31;;;;;;;2.60;2.40;;;;;;;;;;4947610;28;20410;-69
2022/05/10 13:09:24;;;;;;;5.93;2.60;;;;;;;;;;4952381;28;20050;-71
2022/05/10 13:11:56;;;;;;;3.80;2.60;;;;;;;;;;4945554;28;20170;-69
2022/05/10 13:14:22;;;;;;;2.50;2.30;;;;;;;;;;4954479;28;20037;-69
2022/05/10 13:16:50;;;;;;;4.07;2.47;;;;;;;;;;4944763;28;20043;-71
2022/05/10 13:19:18;;;;;;;2.95;2.55;;;;;;;;;;4948577;28;20042;-68
2022/05/10 13:21:44;;;;;;;3.00;2.70;;;;;;;;;;4958078;28;20062;-71
2022/05/10 13:24:13;;;;;;;4.45;2.80;;;;;;;;;;4947932;28;20363;-72
2022/05/10 13:27:02;;;;;;;2.75;2.28;;;;;;;;;;4953996;28;20034;-71
2022/05/10 13:29:45;;;;;;;4.63;3.10;;;;;;;;;;4950318;28;20027;-69
2022/05/10 13:32:37;;;;;;;2.80;2.60;;;;;;;;;;4951613;28;20039;-70
2022/05/10 13:35:13;;;;;;;3.97;2.70;;;;;;;;;;4953991;28;20039;-70
2022/05/10 13:37:57;;;;;;;5.95;3.17;;;;;;;;;;4951142;28;20464;-71
2022/05/10 13:40:43;;;;;;;4.63;2.47;;;;;;;;;;4957956;28;20042;-70
2022/05/10 13:43:15;;;;;;;4.28;2.75;;;;;;;;;;4952161;28;20054;-69
2022/05/10 13:45:42;;;;;;;3.20;2.55;;;;;;;;;;4956294;28;20031;-69
2022/05/10 13:48:12;;;;;;;3.33;2.60;;;;;;;;;;4950305;28;20121;-70
2022/05/10 13:50:40;;;;;;;3.10;2.63;;;;;;;;;;4956400;28;20034;-70
2022/05/10 13:53:08;;;;;;;3.10;2.83;;;;;;;;;;4952387;28;20544;-70
2022/05/10 13:55:37;;;;;;;2.97;2.53;;;;;;;;;;4947517;28;20259;-70
2022/05/10 13:58:05;;;;;;;4.90;2.88;;;;;;;;;;4952504;28;20038;-70
2022/05/10 14:00:33;;;;;;;4.90;2.75;;;;;;;;;;4950233;28;20042;-70
2022/05/10 14:03:00;;;;;;;5.93;3.10;;;;;;;;;;4950218;28;20046;-71
2022/05/10 14:05:29;;;;;;;3.25;2.67;;;;;;;;;;4952951;28;20113;-70
2022/05/10 14:07:59;;;;;;;4.27;2.80;;;;;;;;;;4952789;28;20035;-71
2022/05/10 14:10:30;;;;;;;5.00;2.42;;;;;;;;;;4958007;28;20129;-71
2022/05/10 14:13:00;;;;;;;3.10;2.70;;;;;;;;;;4956715;28;20101;-69
2022/05/10 14:15:34;;;;;;;3.38;2.80;;;;;;;;;;4955695;28;20045;-69
2022/05/10 14:18:09;;;;;;;3.55;2.70;;;;;;;;;;4953571;28;20189;-73
2022/05/10 14:20:40;;;;;;;4.65;2.88;;;;;;;;;;4946489;28;20153;-70
2022/05/10 14:23:10;;;;;;;2.80;2.60;;;;;;;;;;4956239;28;20161;-71
2022/05/10 14:25:36;;;;;;;7.57;2.80;;;;;;;;;;4951292;28;20121;-70
2022/05/10 14:30:41;;;;;;;4.70;2.80;;;;;;;;;;4957297;28;20104;-71
2022/05/10 14:33:21;;;;;;;2.88;2.58;;;;;;;;;;4945532;28;20408;-72
2022/05/10 14:36:00;;;;;;;3.90;2.53;;;;;;;;;;4943288;28;20064;-71
2022/05/10 14:38:26;;;;;;;64.50;9.43;;;;;;;;;;4944121;28;20027;-72
2022/05/10 14:40:53;;;;;;;7.57;2.75;;;;;;;;;;4943874;28;20063;-72
2022/05/10 14:43:22;;;;;;;6.47;3.10;;;;;;;;;;4943609;28;20035;-72
2022/05/10 14:45:52;;;;;;;2.55;2.30;;;;;;;;;;4954908;28;20039;-72
2022/05/10 14:48:31;;;;;;;20.17;3.33;;;;;;;;;;4944482;28;21426;-72
2022/05/10 14:51:02;;;;;;;4.65;2.30;;;;;;;;;;4944241;28;20392;-72
2022/05/10 14:53:32;;;;;;;3.15;2.65;;;;;;;;;;4943207;28;20044;-72
2022/05/10 14:56:00;;;;;;;3.35;2.40;;;;;;;;;;4942326;28;20051;-73
2022/05/10 14:58:36;;;;;;;4.63;2.70;;;;;;;;;;4949882;28;20498;-73
2022/05/10 15:01:24;;;;;;;2.72;2.53;;;;;;;;;;4950395;28;20521;-72
2022/05/10 15:04:11;;;;;;;5.05;2.28;;;;;;;;;;4943283;28;20046;-73
2022/05/10 15:06:42;;;;;;;7.20;2.72;;;;;;;;;;4945618;28;20149;-72
2022/05/10 15:09:08;;;;;;;7.22;2.38;;;;;;;;;;4946628;28;20491;-72
2022/05/10 15:13:01;;;;;;;3.47;2.63;;;;;;;;;;4956801;28;20041;-72
2022/05/10 15:14:20;;;;;;;5.65;3.08;;;;;;;;;;4942991;28;20031;-72
2022/05/10 15:16:46;;;;;;;16.35;3.13;;;;;;;;;;4932781;28;20146;-72
2022/05/10 15:19:12;;;;;;;4.82;2.90;;;;;;;;;;4941052;28;20049;-72
2022/05/10 15:21:38;;;;;;;3.58;2.58;;;;;;;;;;4943258;28;20050;-72
2022/05/10 15:24:06;;;;;;;4.18;2.80;;;;;;;;;;4943281;28;20085;-72